Time;durP1;ratioP1;P1;durP2;ratioP2;P2;SDS_P1;SDS_P2;PMS_P1;PMS_P2;Temp;Humidity;BMP_temperature;BMP_pressure;BME280_temperature;BME280_humidity;BME280_pressure;Samples;Min_cycle;Max_cycle;Signal;HPM_P1;HPM_P2
2021/10/22 00:01:33;;;;;;;1.63;0.67;;;;;;;13.58;57.29;95380.66;6123256;23;20177;-84
2021/10/22 00:03:59;;;;;;;2.00;0.90;;;;;;;13.60;56.84;95376.09;6122162;23;20712;-84
2021/10/22 00:06:26;;;;;;;2.07;0.97;;;;;;;13.58;57.14;95391.00;6122908;23;20183;-85
2021/10/22 00:08:53;;;;;;;2.40;0.90;;;;;;;13.61;57.08;95382.06;6123086;23;20207;-84
2021/10/22 00:11:19;;;;;;;2.40;1.13;;;;;;;13.56;57.02;95394.78;6122871;23;20211;-84
2021/10/22 00:13:45;;;;;;;1.20;1.00;;;;;;;13.55;57.42;95399.16;6122417;23;20752;-84
2021/10/22 00:16:12;;;;;;;1.50;0.80;;;;;;;13.57;57.41;95394.59;6122984;23;20190;-87
2021/10/22 00:18:40;;;;;;;2.27;1.00;;;;;;;13.68;57.31;95401.75;6123056;23;20638;-87
2021/10/22 00:21:06;;;;;;;1.90;1.00;;;;;;;13.64;57.64;95415.31;6123279;23;20230;-87
2021/10/22 00:23:33;;;;;;;2.23;0.90;;;;;;;13.68;57.32;95416.47;6124831;23;20341;-87
2021/10/22 00:25:59;;;;;;;2.33;1.20;;;;;;;13.71;57.52;95421.25;6124082;23;20206;-86
2021/10/22 00:28:26;;;;;;;2.03;1.00;;;;;;;13.74;57.07;95426.03;6125076;23;20644;-86
2021/10/22 00:30:52;;;;;;;1.80;0.83;;;;;;;13.67;57.86;95425.22;6126040;23;20195;-88
2021/10/22 00:33:19;;;;;;;1.67;1.10;;;;;;;13.75;57.37;95430.22;6126674;23;20279;-86
2021/10/22 00:35:46;;;;;;;2.33;0.90;;;;;;;13.56;58.67;95438.75;6125051;23;20179;-86
2021/10/22 00:38:13;;;;;;;2.50;1.10;;;;;;;13.59;58.18;95438.38;6125954;23;20604;-87
2021/10/22 00:40:39;;;;;;;3.00;0.90;;;;;;;13.58;58.41;95450.50;6125056;23;20176;-86
2021/10/22 00:43:07;;;;;;;1.87;1.10;;;;;;;13.57;59.17;95448.91;6125280;23;20202;-86
2021/10/22 00:45:33;;;;;;;1.93;0.90;;;;;;;13.65;58.36;95445.34;6124474;23;20188;-86
2021/10/22 00:48:00;;;;;;;1.93;0.80;;;;;;;13.62;58.78;95459.47;6125319;23;20198;-87
2021/10/22 00:50:27;;;;;;;2.30;1.10;;;;;;;13.68;60.04;95458.66;6124510;23;20790;-87
2021/10/22 00:52:55;;;;;;;3.03;1.20;;;;;;;13.60;62.93;95453.69;6125135;23;20227;-88
2021/10/22 00:55:21;;;;;;;3.20;1.07;;;;;;;13.47;64.01;95458.84;6124779;23;20190;-88
2021/10/22 00:57:48;;;;;;;3.03;1.10;;;;;;;13.28;66.99;95468.16;6124834;23;20186;-86
2021/10/22 01:00:14;;;;;;;1.70;0.80;;;;;;;13.21;68.45;95469.16;6125124;23;20176;-88
2021/10/22 01:02:41;;;;;;;1.77;1.10;;;;;;;13.03;70.67;95464.50;6126367;23;20234;-86
2021/10/22 01:05:11;;;;;;;2.20;0.87;;;;;;;12.99;71.30;95474.44;6127032;23;20322;-88
2021/10/22 01:07:39;;;;;;;1.90;1.10;;;;;;;13.00;72.39;95473.44;6127444;23;20160;-88
2021/10/22 01:10:09;;;;;;;2.03;1.10;;;;;;;13.13;71.09;95467.50;6126560;23;20184;-88
2021/10/22 01:12:36;;;;;;;2.83;0.93;;;;;;;13.23;71.31;95469.75;6126787;23;20584;-88
2021/10/22 01:15:04;;;;;;;2.90;1.10;;;;;;;13.25;73.07;95473.75;6127536;23;20199;-86
2021/10/22 01:17:31;;;;;;;2.03;1.10;;;;;;;13.05;73.14;95470.28;6127240;23;20186;-88
2021/10/22 01:19:58;;;;;;;2.60;0.90;;;;;;;13.07;73.41;95473.47;6127592;23;20180;-88
2021/10/22 01:22:25;;;;;;;1.97;1.07;;;;;;;13.10;74.94;95473.84;6126678;23;20179;-88
2021/10/22 01:24:52;;;;;;;3.73;1.13;;;;;;;13.09;74.43;95469.66;6126577;23;20215;-88
2021/10/22 01:27:19;;;;;;;2.63;1.23;;;;;;;13.06;74.66;95472.66;6126837;23;20180;-87
2021/10/22 01:29:45;;;;;;;2.03;1.10;;;;;;;12.98;75.30;95479.78;6126618;23;20182;-88
2021/10/22 01:32:15;;;;;;;1.77;0.90;;;;;;;12.89;75.54;95478.38;6126599;23;20290;-87
2021/10/22 01:34:41;;;;;;;2.03;1.00;;;;;;;12.88;76.70;95469.81;6126290;23;20179;-88
2021/10/22 01:37:08;;;;;;;2.07;0.90;;;;;;;12.83;76.41;95467.03;6126269;23;20634;-87
2021/10/22 01:39:35;;;;;;;2.73;1.17;;;;;;;12.68;78.09;95472.31;6126661;23;20420;-87
2021/10/22 01:42:03;;;;;;;2.70;1.00;;;;;;;12.58;79.40;95471.88;6126373;23;20226;-88
2021/10/22 01:44:29;;;;;;;1.93;1.00;;;;;;;12.56;79.38;95466.09;6126485;23;20200;-87
2021/10/22 01:46:56;;;;;;;2.77;1.30;;;;;;;12.64;78.69;95470.31;6126335;23;20176;-86
2021/10/22 01:49:22;;;;;;;1.90;1.00;;;;;;;12.73;78.58;95469.16;6126286;23;20182;-88
2021/10/22 01:51:49;;;;;;;2.27;0.90;;;;;;;12.77;77.29;95471.16;6126676;23;20202;-88
2021/10/22 01:54:15;;;;;;;1.80;0.90;;;;;;;12.78;78.48;95470.16;6125976;23;20203;-87
2021/10/22 01:56:43;;;;;;;1.07;0.90;;;;;;;12.76;78.16;95471.34;6126491;23;20235;-87
2021/10/22 01:59:09;;;;;;;2.70;1.10;;;;;;;12.71;78.72;95476.28;6126679;23;20175;-85
2021/10/22 02:01:36;;;;;;;2.60;1.23;;;;;;;12.66;78.47;95466.56;6126597;23;20172;-86
2021/10/22 02:04:02;;;;;;;1.47;0.90;;;;;;;12.62;78.87;95480.84;6126132;23;20250;-84
2021/10/22 02:06:29;;;;;;;4.03;1.27;;;;;;;12.61;78.40;95474.06;6125975;23;20180;-86
2021/10/22 02:08:55;;;;;;;2.10;0.90;;;;;;;12.57;79.22;95472.84;6126524;23;20231;-88
2021/10/22 02:11:21;;;;;;;2.27;1.13;;;;;;;12.59;78.67;95472.66;6126595;23;20183;-88
2021/10/22 02:13:49;;;;;;;3.10;1.00;;;;;;;12.57;79.17;95482.38;6125502;23;20195;-88
2021/10/22 02:16:16;;;;;;;1.17;1.00;;;;;;;12.62;79.41;95482.63;6126726;23;20238;-86
2021/10/22 02:18:42;;;;;;;2.73;1.10;;;;;;;12.64;78.62;95484.03;6126674;23;20180;-87
2021/10/22 02:21:09;;;;;;;1.97;0.90;;;;;;;12.64;77.94;95480.66;6125963;23;20180;-87
2021/10/22 02:23:36;;;;;;;2.53;1.43;;;;;;;12.59;78.12;95483.78;6125862;23;20214;-87
2021/10/22 02:26:02;;;;;;;2.27;1.00;;;;;;;12.63;79.12;95484.22;6125888;23;20207;-87
2021/10/22 02:28:29;;;;;;;1.77;1.00;;;;;;;12.66;78.48;95487.22;6125673;23;20247;-87
2021/10/22 02:30:57;;;;;;;2.23;1.10;;;;;;;12.71;78.18;95489.19;6126435;23;20175;-88
2021/10/22 02:33:23;;;;;;;2.93;1.03;;;;;;;12.70;77.79;95496.16;6125571;23;20204;-88
2021/10/22 02:35:50;;;;;;;2.90;1.20;;;;;;;12.70;78.17;95491.00;6125446;23;20187;-87
2021/10/22 02:38:16;;;;;;;1.27;1.10;;;;;;;12.70;78.68;95496.16;6125943;23;20179;-87
2021/10/22 02:40:43;;;;;;;2.40;1.20;;;;;;;12.76;78.04;95492.03;6125520;23;20553;-87
2021/10/22 02:43:09;;;;;;;1.70;1.20;;;;;;;12.68;78.63;95495.56;6125435;23;20214;-85
2021/10/22 02:45:36;;;;;;;4.47;1.23;;;;;;;12.71;77.88;95489.19;6125536;23;20179;-86
2021/10/22 02:48:04;;;;;;;3.27;1.20;;;;;;;12.69;78.65;95491.22;6126141;23;20175;-86
2021/10/22 02:50:31;;;;;;;4.10;1.20;;;;;;;12.73;79.84;95497.56;6125852;23;20179;-86
2021/10/22 02:53:00;;;;;;;1.73;1.23;;;;;;;12.77;80.16;95502.16;6126207;23;20206;-88
2021/10/22 02:55:28;;;;;;;2.03;1.10;;;;;;;12.67;81.88;95503.50;6125268;23;20198;-87
2021/10/22 02:57:54;;;;;;;4.03;1.03;;;;;;;12.66;80.60;95507.88;6125255;23;20183;-88
2021/10/22 03:00:20;;;;;;;1.57;1.00;;;;;;;12.61;81.09;95510.22;6124985;23;20175;-88
2021/10/22 03:02:47;;;;;;;0.87;0.83;;;;;;;12.67;79.77;95512.06;6125523;23;20715;-88
2021/10/22 03:05:15;;;;;;;1.23;0.80;;;;;;;12.66;79.38;95520.00;6125668;23;20176;-86
2021/10/22 03:07:42;;;;;;;1.33;0.90;;;;;;;12.59;79.49;95512.19;6125650;23;20191;-85
2021/10/22 03:10:10;;;;;;;1.00;0.90;;;;;;;12.63;79.59;95513.44;6125123;23;20231;-86
2021/10/22 03:12:36;;;;;;;1.30;0.70;;;;;;;12.54;80.43;95513.75;6125139;23;20673;-87
2021/10/22 03:15:03;;;;;;;2.33;1.20;;;;;;;12.53;80.39;95517.31;6125151;23;20186;-87
2021/10/22 03:17:30;;;;;;;1.43;1.20;;;;;;;12.47;81.46;95518.09;6125823;23;20193;-86
2021/10/22 03:19:56;;;;;;;1.20;1.03;;;;;;;12.53;80.00;95528.44;6125734;23;20175;-84
2021/10/22 03:22:24;;;;;;;1.20;1.10;;;;;;;12.44;80.96;95522.66;6124432;23;20172;-88
2021/10/22 03:24:52;;;;;;;2.20;1.60;;;;;;;12.36;81.80;95517.63;6124288;23;20227;-88
2021/10/22 03:27:20;;;;;;;1.10;1.10;;;;;;;12.36;81.89;95522.00;6124988;23;20661;-86
2021/10/22 03:29:47;;;;;;;1.13;1.00;;;;;;;12.36;81.62;95535.69;6125257;23;20176;-85
2021/10/22 03:32:13;;;;;;;1.17;1.00;;;;;;;12.29;82.35;95540.03;6125578;23;20250;-85
2021/10/22 03:34:40;;;;;;;1.27;1.17;;;;;;;12.29;81.38;95534.88;6125140;23;20668;-88
2021/10/22 03:37:07;;;;;;;1.30;1.00;;;;;;;12.35;79.42;95541.03;6125424;23;20502;-87
2021/10/22 03:39:35;;;;;;;1.10;0.87;;;;;;;12.15;80.59;95537.53;6125156;23;20159;-88
2021/10/22 03:42:01;;;;;;;1.10;0.90;;;;;;;12.07;80.72;95541.06;6124887;23;20180;-88
2021/10/22 03:44:28;;;;;;;1.00;1.00;;;;;;;12.06;80.89;95542.03;6124659;23;20258;-88
2021/10/22 03:46:55;;;;;;;0.90;0.80;;;;;;;12.08;80.79;95552.97;6125578;23;20589;-87
2021/10/22 03:49:21;;;;;;;1.53;1.10;;;;;;;12.16;79.59;95549.44;6124809;23;20260;-88
2021/10/22 03:51:48;;;;;;;1.20;1.07;;;;;;;12.07;81.27;95541.84;6123433;23;20179;-88
2021/10/22 03:54:14;;;;;;;1.53;1.10;;;;;;;12.05;81.00;95545.59;6124303;23;20207;-88
2021/10/22 03:56:44;;;;;;;1.70;1.30;;;;;;;11.95;81.88;95545.91;6127033;23;20179;-86
2021/10/22 03:59:11;;;;;;;1.07;1.07;;;;;;;11.95;81.94;95542.53;6127263;23;20171;-86
2021/10/22 04:01:38;;;;;;;1.50;1.20;;;;;;;12.03;80.78;95550.16;6126871;23;20175;-89
2021/10/22 04:04:04;;;;;;;1.37;1.20;;;;;;;12.01;81.75;95549.53;6126466;23;20275;-88
2021/10/22 04:06:31;;;;;;;1.30;1.20;;;;;;;11.99;81.83;95554.88;6127622;23;20175;-88
2021/10/22 04:08:57;;;;;;;1.93;1.40;;;;;;;11.83;81.41;95557.72;6126975;23;20175;-86
2021/10/22 04:11:24;;;;;;;2.00;1.40;;;;;;;11.82;80.70;95550.97;6127670;23;20180;-87
2021/10/22 04:13:52;;;;;;;2.07;1.40;;;;;;;11.67;80.31;95557.94;6126992;23;20200;-87
2021/10/22 04:16:18;;;;;;;1.33;1.23;;;;;;;11.66;79.73;95558.91;6128369;23;20175;-86
2021/10/22 04:18:45;;;;;;;1.63;1.20;;;;;;;11.83;90.62;95568.03;6126650;23;20180;-82
2021/10/22 04:21:11;;;;;;;3.83;1.80;;;;;;;12.12;88.72;95561.16;6127359;23;20180;-84
2021/10/22 04:23:38;;;;;;;1.17;1.17;;;;;;;12.17;78.51;95562.16;6126118;23;20195;-84
2021/10/22 04:26:04;;;;;;;1.50;1.40;;;;;;;12.04;77.82;95557.72;6125471;23;20707;-86
2021/10/22 04:28:31;;;;;;;2.07;1.50;;;;;;;11.86;78.69;95566.88;6126254;23;20226;-87
2021/10/22 04:30:59;;;;;;;3.03;1.30;;;;;;;11.79;78.66;95566.78;6125428;23;20688;-87
2021/10/22 04:33:26;;;;;;;1.47;1.37;;;;;;;11.72;78.65;95568.50;6125888;23;20204;-85
2021/10/22 04:35:52;;;;;;;2.10;1.53;;;;;;;11.59;80.16;95565.78;6125836;23;20194;-87
2021/10/22 04:41:04;;;;;;;2.33;1.57;;;;;;;11.45;80.66;95559.69;6125954;23;20195;-87
2021/10/22 04:43:31;;;;;;;1.77;1.67;;;;;;;11.51;79.02;95564.13;6125692;23;20214;-87
2021/10/22 04:45:59;;;;;;;2.33;1.40;;;;;;;11.49;78.89;95560.13;6121286;23;20320;-86
2021/10/22 04:48:25;;;;;;;1.93;1.47;;;;;;;11.39;77.85;95543.16;6119222;23;20160;-86
2021/10/22 04:50:52;;;;;;;1.43;1.33;;;;;;;11.37;77.97;95562.38;6124156;23;20188;-87
2021/10/22 04:53:22;;;;;;;2.87;1.30;;;;;;;11.39;77.91;95565.56;6125596;23;20676;-89
2021/10/22 04:55:49;;;;;;;2.47;1.33;;;;;;;11.32;77.49;95565.50;6124375;23;20171;-88
2021/10/22 04:58:15;;;;;;;1.50;1.40;;;;;;;11.19;79.28;95574.84;6126562;23;20164;-88
2021/10/22 05:00:42;;;;;;;3.33;1.70;;;;;;;11.09;79.64;95580.28;6125526;23;20175;-88
2021/10/22 05:03:09;;;;;;;1.73;1.63;;;;;;;11.07;79.40;95580.47;6124817;23;20204;-87
2021/10/22 05:05:36;;;;;;;1.93;1.60;;;;;;;11.06;78.74;95580.63;6124991;23;20195;-88
2021/10/22 05:08:03;;;;;;;2.07;1.80;;;;;;;11.03;78.53;95576.63;6125991;23;20186;-86
2021/10/22 05:10:29;;;;;;;3.60;1.70;;;;;;;11.03;79.44;95583.56;6125986;23;20195;-89
2021/10/22 05:12:56;;;;;;;1.93;1.73;;;;;;;11.17;78.13;95585.31;6125169;23;20208;-88
2021/10/22 05:15:24;;;;;;;2.67;1.73;;;;;;;11.20;78.72;95581.59;6125310;23;20179;-87
2021/10/22 05:17:55;;;;;;;2.00;1.90;;;;;;;11.21;78.49;95580.63;6126065;23;20179;-88
2021/10/22 05:20:23;;;;;;;2.30;2.10;;;;;;;11.21;78.58;95580.63;6125608;23;20179;-88
2021/10/22 05:22:50;;;;;;;2.30;2.00;;;;;;;11.11;79.49;95585.25;6125542;23;20255;-87
2021/10/22 05:25:17;;;;;;;2.83;2.20;;;;;;;11.05;79.88;95597.88;6125267;23;20212;-87
2021/10/22 05:27:44;;;;;;;2.47;2.27;;;;;;;11.00;79.55;95586.50;6126515;23;20230;-88
2021/10/22 05:30:11;;;;;;;3.07;2.20;;;;;;;10.99;79.12;95598.59;6125987;23;20176;-88
2021/10/22 05:32:38;;;;;;;3.27;2.20;;;;;;;11.08;78.50;95607.03;6126109;23;20239;-88
2021/10/22 05:35:04;;;;;;;3.83;1.87;;;;;;;11.01;78.21;95606.94;6126969;23;20179;-88
2021/10/22 05:37:32;;;;;;;3.47;2.27;;;;;;;10.86;78.45;95603.56;6126481;23;20180;-88
2021/10/22 05:39:59;;;;;;;3.40;2.30;;;;;;;10.78;79.36;95610.56;6126014;23;20183;-89
2021/10/22 05:42:25;;;;;;;4.77;2.40;;;;;;;10.74;79.66;95615.28;6126704;23;20239;-88
2021/10/22 05:44:52;;;;;;;4.13;2.53;;;;;;;10.77;78.91;95614.16;6126240;23;20262;-87
2021/10/22 05:47:18;;;;;;;3.03;2.37;;;;;;;10.68;79.54;95618.56;6126738;23;20183;-86
2021/10/22 05:49:44;;;;;;;5.30;2.40;;;;;;;10.60;80.87;95610.91;6122994;23;20183;-87
2021/10/22 05:52:12;;;;;;;5.73;2.53;;;;;;;10.74;79.36;95623.03;6125685;23;20183;-85
2021/10/22 05:54:41;;;;;;;4.07;2.77;;;;;;;10.69;79.76;95625.31;6124694;23;20529;-88
2021/10/22 05:57:08;;;;;;;4.70;2.50;;;;;;;10.71;79.10;95624.16;6125957;23;20259;-88
2021/10/22 05:59:34;;;;;;;3.00;2.70;;;;;;;10.73;79.20;95616.28;6125253;23;20184;-87
2021/10/22 06:02:00;;;;;;;3.67;2.33;;;;;;;10.76;79.27;95617.69;6124933;23;20192;-87
2021/10/22 06:04:27;;;;;;;3.17;2.53;;;;;;;10.74;79.63;95625.59;6125299;23;20191;-88
2021/10/22 06:06:53;;;;;;;3.90;2.27;;;;;;;10.78;78.59;95626.00;6126058;23;20238;-88
2021/10/22 06:09:20;;;;;;;4.03;2.57;;;;;;;10.72;79.59;95618.03;6124173;23;20187;-87
2021/10/22 06:11:49;;;;;;;5.33;3.00;;;;;;;10.67;80.18;95632.41;6125566;23;20179;-86
2021/10/22 06:14:15;;;;;;;4.07;2.60;;;;;;;10.72;79.41;95630.91;6125019;23;20569;-88
2021/10/22 06:16:42;;;;;;;3.33;2.40;;;;;;;10.90;78.37;95637.50;6126119;23;20163;-87
2021/10/22 06:19:14;;;;;;;4.07;2.80;;;;;;;10.87;78.52;95630.13;6125396;23;20175;-87
2021/10/22 06:21:53;;;;;;;4.37;2.50;;;;;;;10.86;78.68;95646.56;6124822;23;20190;-87
2021/10/22 06:24:24;;;;;;;3.50;2.40;;;;;;;10.82;79.34;95651.25;6124222;23;20234;-87
2021/10/22 06:26:52;;;;;;;4.43;2.50;;;;;;;10.73;79.79;95645.41;6127186;23;20565;-87
2021/10/22 06:29:19;;;;;;;4.33;2.50;;;;;;;10.73;80.22;95652.31;6126390;23;20187;-87
2021/10/22 06:31:47;;;;;;;5.23;2.57;;;;;;;10.69;80.58;95657.00;6128044;23;20243;-88
2021/10/22 06:34:13;;;;;;;4.67;2.77;;;;;;;10.70;80.48;95668.91;6126628;23;20253;-86
2021/10/22 06:36:45;;;;;;;3.40;2.70;;;;;;;10.76;79.11;95661.47;6123609;23;20187;-87
2021/10/22 06:39:12;;;;;;;3.57;2.70;;;;;;;10.90;77.79;95666.63;6122060;23;20179;-85
2021/10/22 06:41:38;;;;;;;3.57;2.83;;;;;;;10.90;77.59;95666.63;6121824;23;20183;-87
2021/10/22 06:44:06;;;;;;;3.90;2.50;;;;;;;10.89;76.93;95675.34;6122387;23;20415;-87
2021/10/22 06:46:33;;;;;;;3.87;2.87;;;;;;;10.99;75.89;95673.28;6121845;23;20179;-87
2021/10/22 06:49:00;;;;;;;4.20;2.90;;;;;;;10.98;75.73;95661.38;6121553;23;20215;-86
2021/10/22 06:51:26;;;;;;;4.03;2.70;;;;;;;11.05;76.42;95659.72;6123636;23;20191;-86
2021/10/22 06:53:53;;;;;;;4.10;2.90;;;;;;;11.13;75.79;95651.09;6122129;23;20200;-86
2021/10/22 06:56:20;;;;;;;3.47;2.73;;;;;;;11.13;76.42;95658.03;6122250;23;20206;-88
2021/10/22 06:58:46;;;;;;;6.93;3.07;;;;;;;11.14;75.97;95663.03;6121648;23;20175;-85
2021/10/22 07:01:14;;;;;;;6.67;3.37;;;;;;;11.13;75.94;95665.78;6122329;23;20786;-85
2021/10/22 07:03:42;;;;;;;4.37;2.97;;;;;;;11.14;75.26;95667.38;6119478;23;20203;-85
2021/10/22 07:08:54;;;;;;;5.03;2.90;;;;;;;11.16;75.04;95676.50;6121635;23;20199;-85
2021/10/22 07:11:24;;;;;;;4.70;2.47;;;;;;;11.10;74.96;95682.38;6122025;23;20179;-86
2021/10/22 07:13:54;;;;;;;3.73;2.20;;;;;;;11.12;74.69;95683.00;6120920;23;20753;-84
2021/10/22 07:16:42;;;;;;;2.40;2.20;;;;;;;11.17;74.51;95685.84;6122686;23;20156;-85
2021/10/22 07:19:09;;;;;;;4.13;2.13;;;;;;;11.18;74.23;95687.44;6121325;23;20179;-84
2021/10/22 07:21:42;;;;;;;5.70;2.40;;;;;;;11.10;73.65;95697.84;6122748;23;20513;-86
2021/10/22 07:24:18;;;;;;;3.53;2.10;;;;;;;11.05;73.26;95689.84;6121753;23;20692;-86
2021/10/22 07:26:47;;;;;;;3.33;1.90;;;;;;;11.17;74.09;95692.75;6122365;23;20174;-87
2021/10/22 07:29:19;;;;;;;4.80;2.30;;;;;;;11.20;75.29;95705.28;6123813;23;20262;-88
2021/10/22 07:31:55;;;;;;;4.13;2.30;;;;;;;11.12;75.20;95711.34;6124970;23;20187;-86
2021/10/22 07:34:22;;;;;;;6.67;2.33;;;;;;;11.07;75.56;95724.75;6122788;23;20254;-88
2021/10/22 07:36:50;;;;;;;4.37;2.07;;;;;;;11.10;75.46;95730.53;6119469;23;20218;-88
2021/10/22 07:39:17;;;;;;;5.70;2.10;;;;;;;11.00;75.23;95734.16;6122959;23;20180;-88
2021/10/22 07:41:43;;;;;;;3.90;2.00;;;;;;;11.06;75.06;95741.19;6125431;23;20183;-88
2021/10/22 07:44:13;;;;;;;4.47;2.10;;;;;;;10.99;75.10;95742.84;6124159;23;20202;-85
2021/10/22 07:46:42;;;;;;;4.97;2.33;;;;;;;11.05;74.51;95744.75;6124390;23;20187;-88
2021/10/22 07:49:13;;;;;;;5.27;1.97;;;;;;;10.99;75.07;95752.34;6124978;23;20175;-88
2021/10/22 07:51:43;;;;;;;5.23;2.10;;;;;;;11.00;74.38;95754.75;6125524;23;20219;-88
2021/10/22 07:54:12;;;;;;;5.40;2.10;;;;;;;11.05;73.75;95759.41;6125104;23;20673;-87
2021/10/22 07:56:43;;;;;;;5.90;2.10;;;;;;;11.01;74.81;95753.78;6124244;23;20172;-88
2021/10/22 07:59:10;;;;;;;2.60;2.00;;;;;;;11.01;76.30;95760.72;6124965;23;20518;-88
2021/10/22 08:01:41;;;;;;;6.07;3.30;;;;;;;10.98;75.59;95769.59;6123305;23;20562;-88
2021/10/22 08:04:09;;;;;;;4.67;2.33;;;;;;;10.93;75.84;95773.69;6124766;23;20223;-88
2021/10/22 08:06:39;;;;;;;4.97;2.27;;;;;;;10.88;76.50;95765.66;6124185;23;20668;-88
2021/10/22 08:09:06;;;;;;;3.70;2.10;;;;;;;10.99;75.27;95770.41;6124175;23;20199;-89
2021/10/22 08:11:34;;;;;;;6.27;2.20;;;;;;;11.03;75.48;95775.03;6124465;23;20206;-88
2021/10/22 08:14:01;;;;;;;4.63;2.77;;;;;;;11.11;75.32;95781.91;6124343;23;20242;-88
2021/10/22 08:16:28;;;;;;;5.17;2.53;;;;;;;11.20;74.46;95774.88;6124778;23;20179;-87
2021/10/22 08:18:54;;;;;;;7.30;2.83;;;;;;;11.12;74.68;95786.09;6124971;23;20179;-88
2021/10/22 08:21:22;;;;;;;5.43;2.90;;;;;;;11.03;76.37;95795.66;6123705;23;20179;-88
2021/10/22 08:23:50;;;;;;;4.83;2.70;;;;;;;10.96;78.06;95797.34;6124166;23;20200;-88
2021/10/22 08:26:18;;;;;;;5.33;2.50;;;;;;;11.00;78.13;95798.56;6124026;23;20182;-87
2021/10/22 08:28:45;;;;;;;4.40;2.70;;;;;;;11.02;77.79;95791.47;6124232;23;20526;-88
2021/10/22 08:31:11;;;;;;;5.90;2.80;;;;;;;11.13;77.12;95798.00;6124492;23;20180;-87
2021/10/22 08:33:38;;;;;;;3.77;2.70;;;;;;;11.24;75.85;95799.34;6124031;23;20203;-88
2021/10/22 08:36:05;;;;;;;3.23;2.70;;;;;;;11.28;74.27;95805.75;6124984;23;20230;-87
2021/10/22 08:38:32;;;;;;;4.37;2.70;;;;;;;11.12;74.66;95798.97;6124734;23;20176;-88
2021/10/22 08:41:00;;;;;;;3.77;2.47;;;;;;;11.02;75.83;95800.97;6123939;23;20191;-85
2021/10/22 08:43:28;;;;;;;4.70;2.57;;;;;;;11.08;75.28;95808.00;6125797;23;20209;-85
2021/10/22 08:45:55;;;;;;;3.77;2.70;;;;;;;11.15;75.25;95808.13;6126966;23;20508;-88
2021/10/22 08:48:22;;;;;;;4.77;3.53;;;;;;;11.19;75.23;95809.34;6127582;23;20164;-88
2021/10/22 08:50:49;;;;;;;4.87;2.67;;;;;;;11.36;75.34;95821.13;6126334;23;20214;-88
2021/10/22 08:53:16;;;;;;;4.00;2.40;;;;;;;11.22;72.99;95804.66;6126307;23;20195;-88
2021/10/22 08:55:42;;;;;;;2.80;2.20;;;;;;;11.15;73.64;95814.09;6125111;23;20202;-88
2021/10/22 08:58:11;;;;;;;4.83;2.20;;;;;;;11.18;73.73;95816.28;6126437;23;20242;-87
2021/10/22 09:00:38;;;;;;;4.03;2.30;;;;;;;11.18;72.86;95826.59;6126937;23;20160;-88
2021/10/22 09:03:10;;;;;;;3.00;2.07;;;;;;;11.21;73.59;95818.53;6126136;23;20223;-86
2021/10/22 09:05:38;;;;;;;3.40;2.37;;;;;;;11.24;74.44;95827.69;6126395;23;20167;-85
2021/10/22 09:08:06;;;;;;;3.80;2.67;;;;;;;11.28;74.92;95814.28;6125974;23;20198;-85
2021/10/22 09:10:35;;;;;;;3.73;2.40;;;;;;;11.43;74.35;95827.19;6126296;23;20175;-88
2021/10/22 09:13:05;;;;;;;3.40;2.20;;;;;;;11.50;72.58;95835.84;6126299;23;20262;-88
2021/10/22 09:15:36;;;;;;;4.80;2.30;;;;;;;11.58;72.05;95842.69;6125624;23;20203;-87
2021/10/22 09:18:07;;;;;;;4.27;2.10;;;;;;;11.60;72.27;95844.09;6125992;23;20202;-87
2021/10/22 09:20:34;;;;;;;3.33;2.70;;;;;;;11.56;73.56;95853.16;6125475;23;20159;-88
2021/10/22 09:23:04;;;;;;;3.60;2.33;;;;;;;11.65;73.41;95856.47;6125731;23;20235;-87
2021/10/22 09:25:32;;;;;;;3.23;2.20;;;;;;;11.72;73.52;95852.22;6126038;23;20164;-88
2021/10/22 09:28:00;;;;;;;3.23;2.37;;;;;;;11.66;74.74;95850.34;6113900;23;20281;-88
2021/10/22 09:30:36;;;;;;;3.40;2.40;;;;;;;11.70;74.47;95849.03;6124823;23;20168;-88
2021/10/22 09:33:06;;;;;;;3.03;2.40;;;;;;;11.72;72.70;95845.28;6125727;23;20245;-87
2021/10/22 09:35:38;;;;;;;3.00;2.10;;;;;;;11.71;73.73;95837.72;6126315;23;20192;-87
2021/10/22 09:38:10;;;;;;;3.97;2.10;;;;;;;11.73;72.28;95844.31;6125322;23;20163;-88
2021/10/22 09:40:39;;;;;;;4.53;2.40;;;;;;;11.71;71.93;95854.00;6124560;23;20618;-88
2021/10/22 09:43:19;;;;;;;4.47;2.27;;;;;;;11.70;70.06;95851.59;6125881;23;20282;-87
2021/10/22 09:45:50;;;;;;;3.57;2.47;;;;;;;11.66;69.39;95865.81;6125737;23;20606;-88
2021/10/22 09:48:28;;;;;;;4.43;2.10;;;;;;;11.65;69.70;95866.78;6126299;23;20167;-88
2021/10/22 09:50:56;;;;;;;3.73;2.97;;;;;;;11.56;69.51;95860.91;6125934;23;20215;-87
2021/10/22 09:53:25;;;;;;;2.13;1.77;;;;;;;11.59;70.26;95867.50;6125687;23;20231;-88
2021/10/22 09:56:01;;;;;;;5.97;2.20;;;;;;;11.57;69.04;95861.69;6124364;23;20210;-87
2021/10/22 09:58:27;;;;;;;5.80;2.30;;;;;;;11.73;69.77;95866.72;6126548;23;20175;-88
2021/10/22 10:01:07;;;;;;;5.70;2.07;;;;;;;11.79;71.99;95863.47;6126157;23;20187;-89
2021/10/22 10:03:37;;;;;;;5.70;2.23;;;;;;;11.85;70.82;95869.69;6126931;23;20207;-88
2021/10/22 10:06:07;;;;;;;2.97;1.77;;;;;;;11.85;69.81;95874.84;6126360;23;20176;-88
2021/10/22 10:08:34;;;;;;;4.67;1.90;;;;;;;11.68;68.07;95880.16;6127132;23;20180;-88
2021/10/22 10:11:03;;;;;;;5.20;1.63;;;;;;;11.74;68.10;95876.84;6126589;23;20184;-86
2021/10/22 10:13:30;;;;;;;3.53;1.80;;;;;;;11.70;68.47;95878.19;6127363;23;20200;-88
2021/10/22 10:15:58;;;;;;;4.70;2.10;;;;;;;11.74;66.72;95876.03;6127262;23;20204;-87
2021/10/22 10:18:33;;;;;;;3.70;2.10;;;;;;;11.73;67.35;95871.88;6126546;23;20190;-87
2021/10/22 10:21:03;;;;;;;4.60;2.10;;;;;;;11.76;66.90;95871.53;6126457;23;20269;-88
2021/10/22 10:23:29;;;;;;;3.43;1.70;;;;;;;11.82;66.55;95865.69;6127965;23;20295;-88
2021/10/22 10:25:56;;;;;;;3.87;2.13;;;;;;;11.82;66.37;95870.84;6127567;23;20522;-85
2021/10/22 10:28:40;;;;;;;2.13;1.67;;;;;;;11.91;67.45;95869.00;6128128;23;20798;-87
2021/10/22 10:31:29;;;;;;;2.17;1.70;;;;;;;12.02;65.61;95865.97;6127834;23;20164;-88
2021/10/22 10:33:57;;;;;;;2.40;1.80;;;;;;;11.91;64.91;95872.38;6127462;23;20306;-88
2021/10/22 10:36:50;;;;;;;4.33;2.00;;;;;;;11.95;64.58;95877.97;6128573;23;20207;-88
2021/10/22 10:39:53;;;;;;;2.83;2.03;;;;;;;12.01;64.80;95883.22;6127059;23;20195;-88
2021/10/22 10:42:21;;;;;;;3.13;1.87;;;;;;;11.97;66.18;95883.75;6127706;23;20180;-86
2021/10/22 10:44:49;;;;;;;2.73;1.80;;;;;;;11.96;64.32;95888.09;6134609;23;20191;-85
2021/10/22 10:47:49;;;;;;;4.77;2.07;;;;;;;11.97;63.51;95887.13;6128847;23;20180;-87
2021/10/22 10:50:22;;;;;;;2.67;2.00;;;;;;;12.05;63.18;95886.25;6116532;23;20211;-87
2021/10/22 10:52:57;;;;;;;2.17;1.60;;;;;;;12.06;61.91;95880.13;6127156;23;20199;-88
2021/10/22 10:55:28;;;;;;;3.60;1.90;;;;;;;12.05;62.77;95873.34;6125951;23;20179;-88
2021/10/22 10:57:57;;;;;;;2.30;1.70;;;;;;;12.10;62.86;95869.25;6124570;23;20222;-86
2021/10/22 11:00:28;;;;;;;2.10;1.77;;;;;;;12.08;61.72;95878.16;6127631;23;20175;-88
2021/10/22 11:03:28;;;;;;;4.77;1.70;;;;;;;12.02;62.25;95874.50;6127544;23;20206;-88
2021/10/22 11:06:09;;;;;;;4.30;1.73;;;;;;;12.01;61.88;95869.53;6127825;23;20160;-88
2021/10/22 11:08:46;;;;;;;3.67;1.53;;;;;;;11.91;63.48;95869.78;6127812;23;20688;-84
2021/10/22 11:11:34;;;;;;;3.80;1.50;;;;;;;11.94;61.03;95868.63;6128554;23;20155;-87
2021/10/22 11:14:41;;;;;;;2.17;1.57;;;;;;;11.98;61.70;95875.84;6127884;23;20255;-87
2021/10/22 11:17:13;;;;;;;3.70;1.87;;;;;;;11.91;60.49;95876.72;6127102;23;20182;-88
2021/10/22 11:19:44;;;;;;;3.30;1.60;;;;;;;11.84;60.55;95874.06;6128286;23;20168;-87
2021/10/22 11:22:18;;;;;;;2.90;1.80;;;;;;;11.95;60.29;95868.44;6137318;23;20168;-86
2021/10/22 11:24:45;;;;;;;4.93;1.90;;;;;;;11.95;59.94;95865.84;6135575;23;20199;-87
2021/10/22 11:27:14;;;;;;;4.10;2.10;;;;;;;11.91;60.40;95853.50;6132071;23;20253;-86
2021/10/22 11:29:43;;;;;;;2.10;1.43;;;;;;;12.08;59.21;95849.78;6130366;23;20180;-88
2021/10/22 11:32:11;;;;;;;3.70;2.00;;;;;;;12.11;58.93;95854.56;6126063;23;20180;-87
2021/10/22 11:34:39;;;;;;;3.83;1.83;;;;;;;12.24;59.61;95854.72;6127727;23;20206;-87
2021/10/22 11:37:08;;;;;;;5.37;1.83;;;;;;;12.26;60.05;95862.31;6123630;23;20194;-86
2021/10/22 11:39:39;;;;;;;7.47;2.67;;;;;;;12.29;60.30;95865.34;6123301;23;20183;-86
2021/10/22 11:42:15;;;;;;;3.23;1.90;;;;;;;12.29;59.79;95852.44;6121053;23;20159;-88
2021/10/22 11:44:46;;;;;;;3.37;1.87;;;;;;;12.40;60.28;95857.13;6123645;23;20199;-84
2021/10/22 11:47:13;;;;;;;4.33;2.33;;;;;;;12.39;60.39;95858.09;6123489;23;20164;-86